^^
Datos históricos de la estación: Murcia-Puente Tocinos
Diario Informe para Septiembre 22, 2019 Unidades:  Ingés    Métrico   Ambas
Diario Semanal Mensual Anual
  Máxima: Mínima: Promedio:
Temperatura: 62.1 °F 55 °F 56.8 °F
Punto de rocio: 55.6 °F 50.7 °F 53.2 °F
Humedad: 95% 71.8% 88%
Velocidad viento: 9.2mph 0mph 4.9mph
Racha viento: 17.3mph - -
Viento- - SSO
Presión: 30 in 29.7 in -
Precipitación: 0.88 in    
 
 
Tabla de datos para Septiembre 22, 2019
Hora Temperatura Punto de rocio Presión Viento Velocidad viento Racha viento Humedad Intensidad lluvia(por hora) Nubes
00:04 62.1 °F 52.9 °F 30 in ESE 0.6 mph 3.6 mph 71.8% 0 in
00:09 61.9 °F 52.9 °F 30 in Calm   4.6 mph 72% 0 in
00:14 61.7 °F 52.7 °F 30 in ENE 1.3 mph 5 mph 72% 0 in
00:19 61.5 °F 52.5 °F 30 in ENE 2 mph   72.1% 0 in
00:24 61.5 °F 52.9 °F 30 in ENE 0.7 mph 2.4 mph 73% 0 in
00:29 61.5 °F 53.1 °F 30 in Calm   4.6 mph 73.9% 0 in
00:34 61.3 °F 53.2 °F 30 in NNO 1.2 mph 5 mph 75% 0 in
00:39 61.2 °F 53.2 °F 30 in North 1.8 mph 5.4 mph 75.3% 0 in
00:44 60.8 °F 53.2 °F 30 in NNE 2.5 mph 6 mph 76% 0 in
00:49 60.4 °F 52.9 °F 30 in NNE 2.9 mph 5 mph 76% 0 in
00:54 60.4 °F 52.9 °F 30 in NNE 2.5 mph 5 mph 76% 0 in
00:59 60.4 °F 52.7 °F 29.9 in NNE 2.4 mph 5 mph 76% 0 in
01:04 60.4 °F 52.9 °F 29.9 in NNE 2.1 mph 4 mph 76% 0 in
01:09 60.4 °F 52.5 °F 29.9 in NNE 2 mph 2.9 mph 75.3% 0 in
01:14 60.4 °F 52.5 °F 29.9 in NNE 0.7 mph 4 mph 75% 0 in
01:19 60.4 °F 52.9 °F 29.9 in Calm   5.2 mph 75.7% 0 in
01:24 60.6 °F 52.7 °F 29.9 in SSE 2.1 mph 5.8 mph 75.2% 0 in
01:29 60.6 °F 52.9 °F 29.9 in SSE 3.1 mph 6.9 mph 75.5% 0 in
01:34 60.6 °F 52.9 °F 29.9 in SSE 3.9 mph 7 mph 75.9% 0 in
01:39 60.6 °F 52.5 °F 30 in SSE 4.3 mph 6.2 mph 74.9% 0 in
01:44 60.6 °F 52.3 °F 30 in SSE 4.1 mph 6 mph 73.9% 0 in
01:49 60.6 °F 52 °F 30 in SSE 4 mph 6 mph 73% 0 in
01:54 60.6 °F 52 °F 30 in Sur 4 mph 6 mph 73% 0 in
01:59 60.6 °F 52 °F 30 in SO 4 mph 6 mph 73.2% 0 in
02:04 60.6 °F 52.2 °F 30 in SO 3.4 mph 5 mph 73.8% 0 in
02:09 60.6 °F 52.3 °F 30 in OSO 3.1 mph 5 mph 74% 0 in
02:14 60.6 °F 52.3 °F 29.9 in OSO 2.6 mph 5 mph 74.3% 0 in
02:19 60.4 °F 52.5 °F 29.9 in OSO 2.4 mph 5 mph 75.1% 0 in
02:24 60.3 °F 52.9 °F 29.9 in Oeste 2.7 mph 5 mph 76.5% 0 in
02:29 60.3 °F 53.2 °F 29.9 in OSO 2.9 mph 4 mph 77.8% 0 in
02:34 59.9 °F 53.1 °F 29.9 in ONO 2.2 mph 4.6 mph 78% 0 in
02:39 59.5 °F 52.9 °F 29.9 in NE 1.8 mph 5.9 mph 78.5% 0.01 in
02:44 59.4 °F 53.2 °F 29.9 in ENE 3 mph 6 mph 80% 0.01 in
02:49 59.4 °F 53.6 °F 29.9 in ESE 3.6 mph 6 mph 81.6% 0.01 in
02:54 59 °F 53.8 °F 29.9 in ESE 3.2 mph 6 mph 82.5% 0.01 in
02:59 58.8 °F 53.8 °F 29.9 in SO 3.1 mph 6.9 mph 83% 0.01 in
03:04 58.6 °F 53.6 °F 29.9 in SO 3.7 mph 8.1 mph 83.4% 0.01 in
03:09 58.6 °F 53.8 °F 29.9 in OSO 4 mph 8 mph 84% 0.01 in
03:14 58.6 °F 53.8 °F 29.9 in OSO 4.5 mph 7 mph 84% 0.01 in
03:19 58.6 °F 53.6 °F 29.9 in OSO 4.7 mph 8.5 mph 83.2% 0.01 in
03:24 58.5 °F 53.4 °F 29.9 in OSO 5 mph 9 mph 83.5% 0.02 in
03:29 58.5 °F 53.8 °F 29.9 in OSO 5.2 mph 8 mph 84.5% 0.03 in
03:34 58.3 °F 54 °F 29.9 in Oeste 4.6 mph 9.2 mph 85.7% 0.04 in
03:39 58.3 °F 54.1 °F 29.9 in North 4.3 mph 9 mph 86% 0.04 in
03:44 58.1 °F 54.1 °F 29.9 in NNE 3.5 mph 7 mph 86.8% 0.04 in
03:49 57.9 °F 54.1 °F 29.9 in NNE 3.1 mph 4 mph 87% 0.04 in
03:54 57.9 °F 54.5 °F 29.9 in ESE 2.2 mph 5.2 mph 87.9% 0.04 in
03:59 58.1 °F 54.7 °F 29.9 in Este 1.8 mph 5.4 mph 88% 0.04 in
04:04 57.9 °F 54.5 °F 29.9 in ESE 3 mph 8.5 mph 88.2% 0.04 in
04:09 57.7 °F 54.5 °F 29.9 in ESE 3.6 mph 9 mph 89% 0.05 in
04:14 57.6 °F 54.5 °F 29.9 in ESE 4 mph 6.2 mph 89.4% 0.06 in
04:19 57.6 °F 54.7 °F 29.9 in ESE 4.3 mph 6 mph 90% 0.07 in
04:24 57.6 °F 54.9 °F 29.9 in Este 3.5 mph 5 mph 90.7% 0.08 in
04:29 57.6 °F 55 °F 29.9 in Este 3.1 mph 5 mph 91% 0.07 in
04:34 57.6 °F 55 °F 29.9 in ONO 2.4 mph 5 mph 91% 0.06 in
04:39 57.6 °F 55 °F 29.9 in ONO 2 mph 6.9 mph 91.2% 0.07 in
04:44 57.6 °F 55.2 °F 29.9 in Oeste 2.2 mph 7 mph 91.8% 0.06 in
04:49 57.6 °F 55.2 °F 29.9 in OSO 2.4 mph 5 mph 92% 0.07 in
04:54 57.6 °F 55.2 °F 29.9 in SO 2.4 mph 5 mph 92% 0.07 in
04:59 57.6 °F 55.2 °F 29.9 in SSE 2.4 mph 4.6 mph 92% 0.07 in
05:04 57.6 °F 55.4 °F 29.9 in ESE 2.4 mph 5.9 mph 92.3% 0.08 in
05:09 57.6 °F 55.6 °F 29.9 in ESE 2.4 mph 6 mph 92.7% 0.08 in
05:14 57.6 °F 55.2 °F 29.9 in Oeste 2.4 mph 6 mph 92% 0.08 in
05:19 57.6 °F 55.2 °F 29.9 in ONO 2.4 mph 6 mph 92% 0.08 in
05:24 57.4 °F 55 °F 29.9 in ONO 2.9 mph 6 mph 92% 0.08 in
05:29 57.2 °F 55 °F 29.9 in NO 3.1 mph 5 mph 92.6% 0.09 in
05:34 57 °F 55 °F 29.9 in NNE 2.4 mph 5.2 mph 93% 0.1 in
05:39 57 °F 55 °F 29.9 in NE 2 mph 5 mph 93% 0.1 in
05:44 56.8 °F 54.9 °F 29.8 in NE 2.7 mph 5.8 mph 93% 0.1 in
05:49 57 °F 55 °F 29.8 in NE 3.1 mph 6 mph 93.1% 0.09 in
05:54 57 °F 55 °F 29.9 in Este 2.2 mph 4.6 mph 93% 0.1 in
05:59 57 °F 55 °F 29.9 in ESE 1.8 mph 5 mph 93% 0.1 in
06:04 57 °F 55 °F 29.9 in SSO 2.2 mph 7.6 mph 93% 0.09 in
06:09 56.8 °F 55 °F 29.9 in SSO 2.4 mph 8.5 mph 93.3% 0.09 in
06:14 57 °F 55.2 °F 29.9 in SSO 4.3 mph 9 mph 94% 0.09 in
06:19 57 °F 55.4 °F 29.9 in SSO 5.4 mph 7 mph 94% 0.1 in
06:24 57.2 °F 55.6 °F 29.9 in SSO 4.7 mph 8.1 mph 94% 0.1 in
06:29 57 °F 55.2 °F 29.9 in SSO 4.3 mph 8.1 mph 94% 0.09 in
06:34 57 °F 55.2 °F 29.9 in SSO 4.9 mph 9.2 mph 94% 0.09 in
06:39 56.8 °F 55.2 °F 29.9 in SO 5.2 mph 9.7 mph 94% 0.1 in
06:44 56.8 °F 55 °F 29.9 in SO 5.3 mph 10 mph 94% 0.09 in
06:49 56.7 °F 55 °F 29.9 in SSO 5.4 mph 7 mph 94% 0.11 in
06:54 56.7 °F 55 °F 29.9 in SSO 4.2 mph 8.1 mph 94% 0.11 in
06:59 56.5 °F 54.9 °F 29.9 in SSO 3.6 mph 8.1 mph 94% 0.12 in
07:04 56.5 °F 54.9 °F 29.9 in OSO 4.3 mph 8 mph 94% 0.14 in
07:09 56.3 °F 54.7 °F 29.9 in OSO 4.7 mph 9.2 mph 94% 0.15 in
07:14 56.1 °F 54.3 °F 29.9 in OSO 5 mph 9 mph 94% 0.15 in
07:19 56.1 °F 54.3 °F 29.9 in SO 5.2 mph 6 mph 94% 0.15 in
07:24 56.1 °F 54.3 °F 29.9 in OSO 3.7 mph 5.2 mph 94% 0.14 in
07:29 55.9 °F 54.1 °F 29.9 in Oeste 2.9 mph 5.9 mph 94% 0.15 in
07:34 55.9 °F 54.1 °F 29.9 in OSO 3.4 mph 6.9 mph 94% 0.15 in
07:39 55.8 °F 54.1 °F 29.9 in OSO 3.6 mph 7.4 mph 94% 0.13 in
07:44 55.8 °F 54.1 °F 29.8 in SSO 3.9 mph 8.1 mph 94% 0.12 in
07:49 55.8 °F 54.1 °F 29.8 in SO 4 mph 8.1 mph 94% 0.12 in
07:54 55.6 °F 54 °F 29.8 in OSO 4.5 mph 8.1 mph 94% 0.11 in
07:59 55.6 °F 54 °F 29.8 in OSO 4.7 mph 8.5 mph 94% 0.1 in
08:04 55.8 °F 54 °F 29.8 in OSO 5 mph 9.2 mph 94% 0.09 in
08:09 55.8 °F 54 °F 29.8 in OSO 5.2 mph 10.4 mph 94% 0.08 in
08:14 55.8 °F 54 °F 29.8 in SO 5.3 mph 10 mph 94% 0.06 in
08:19 55.8 °F 54.1 °F 29.8 in SO 5.4 mph 9.7 mph 94% 0.06 in
08:24 55.8 °F 54.1 °F 29.8 in SO 5.4 mph 10.4 mph 94% 0.06 in
08:29 55.8 °F 54.1 °F 29.8 in SO 5.4 mph 10 mph 94% 0.06 in
08:34 55.8 °F 54.1 °F 29.8 in SO 5.7 mph 9.2 mph 94% 0.06 in
08:39 55.8 °F 54.1 °F 29.8 in SO 5.9 mph 9 mph 94% 0.05 in
08:44 55.8 °F 54.1 °F 29.8 in SO 5.6 mph 10.4 mph 94% 0.07 in
08:49 55.8 °F 54.1 °F 29.8 in OSO 5.4 mph 10 mph 94% 0.08 in
08:54 55.8 °F 54.1 °F 29.8 in OSO 5.3 mph 8 mph 94.5% 0.08 in
08:59 55.8 °F 54.3 °F 29.8 in OSO 5.2 mph 8.1 mph 95% 0.08 in
09:04 55.9 °F 54.5 °F 29.8 in OSO 4.1 mph 11.5 mph 95% 0.08 in
09:09 55.8 °F 54.3 °F 29.8 in Oeste 3.6 mph 12 mph 95% 0.08 in
09:14 55.8 °F 54.3 °F 29.8 in Oeste 5.3 mph 12 mph 95% 0.09 in
09:19 55.8 °F 54.3 °F 29.8 in OSO 6.2 mph 12.7 mph 95% 0.1 in
09:24 55.8 °F 54.3 °F 29.8 in OSO 6.3 mph 15.9 mph 95% 0.1 in
09:29 55.8 °F 54.3 °F 29.8 in OSO 6.4 mph 16.3 mph 95% 0.08 in
09:34 55.8 °F 54.3 °F 29.8 in SO 8.2 mph 16 mph 95% 0.08 in
09:39 55.8 °F 54.3 °F 29.8 in SO 9.2 mph 15 mph 95% 0.08 in
09:44 55.8 °F 54.3 °F 29.8 in SO 9.2 mph 15.2 mph 95% 0.08 in
09:49 55.8 °F 54.3 °F 29.8 in SSO 9.2 mph 15 mph 95% 0.07 in
09:54 55.8 °F 54.3 °F 29.9 in SSO 8.8 mph 15 mph 95% 0.08 in
09:59 55.8 °F 54.3 °F 29.9 in SSO 8.5 mph 16.1 mph 95% 0.08 in
10:04 55.8 °F 54.3 °F 29.9 in SSO 8.5 mph 16 mph 95% 0.09 in
10:09 55.8 °F 54.3 °F 29.9 in SO 8.5 mph 13 mph 95% 0.1 in
10:14 55.8 °F 54.1 °F 29.9 in SO 7 mph 12 mph 94.3% 0.1 in
10:19 55.8 °F 54.1 °F 29.9 in SO 6.2 mph 12 mph 94% 0.11 in
10:24 55.8 °F 54.1 °F 29.9 in SO 6.6 mph 11 mph 94% 0.11 in
10:29 55.8 °F 54.1 °F 29.9 in SO 6.9 mph 10.4 mph 94% 0.12 in
10:34 55.8 °F 54.1 °F 29.9 in SSO 5.9 mph 10 mph 94% 0.13 in
10:39 55.8 °F 54.1 °F 29.9 in SO 5.4 mph 11.8 mph 94% 0.12 in
10:44 55.8 °F 54.1 °F 29.8 in SO 5.9 mph 12 mph 94% 0.12 in
10:49 55.8 °F 54.1 °F 29.8 in SO 6.2 mph 12 mph 93.9% 0.12 in
10:54 55.8 °F 53.8 °F 29.8 in SO 6.2 mph 11.8 mph 93% 0.12 in
10:59 55.8 °F 54 °F 29.8 in SO 6.2 mph 15.2 mph 93.2% 0.11 in
11:04 55.8 °F 53.8 °F 29.8 in SO 7.5 mph 15.2 mph 93% 0.09 in
11:09 55.8 °F 53.8 °F 29.8 in SO 8.1 mph 15 mph 93% 0.08 in
11:14 55.9 °F 53.8 °F 29.8 in SO 8.5 mph 16.3 mph 93% 0.08 in
11:19 55.9 °F 54 °F 29.8 in SO 8.7 mph 16 mph 93% 0.07 in
11:24 55.8 °F 53.8 °F 29.8 in SO 8.6 mph 16.1 mph 93% 0.05 in
11:29 55.9 °F 54 °F 29.8 in SO 8.5 mph 16.1 mph 93% 0.05 in
11:34 55.8 °F 53.8 °F 29.8 in SSO 8.6 mph 17.3 mph 93% 0.05 in
11:39 55.8 °F 53.8 °F 29.8 in SO 8.7 mph 17 mph 93% 0.04 in
11:44 55.8 °F 53.8 °F 29.8 in SO 8.3 mph 15 mph 93% 0.06 in
11:49 55.8 °F 53.8 °F 29.8 in SO 8.1 mph 15.2 mph 93% 0.05 in
11:54 55.8 °F 53.8 °F 29.8 in OSO 8.1 mph 15.2 mph 93% 0.05 in
11:59 55.8 °F 53.8 °F 29.8 in OSO 8.1 mph 15 mph 93% 0.05 in
12:04 55.8 °F 53.8 °F 29.8 in SO 8.5 mph 14 mph 93% 0.06 in
12:09 55.8 °F 53.8 °F 29.8 in SO 8.7 mph 13 mph 93% 0.05 in
12:14 55.8 °F 53.6 °F 29.8 in SO 7.2 mph 12 mph 92.5% 0.06 in
12:19 55.9 °F 53.6 °F 29.8 in SO 6.4 mph 10.4 mph 92.2% 0.06 in
12:24 55.9 °F 53.6 °F 29.8 in SO 6.3 mph 11.5 mph 92% 0.06 in
12:29 55.9 °F 53.4 °F 29.8 in SO 6.2 mph 12.7 mph 91.4% 0.06 in
12:34 56.1 °F 53.4 °F 29.8 in SO 6.3 mph 13 mph 91% 0.06 in
12:39 55.9 °F 53.4 °F 29.8 in SO 6.4 mph 12.5 mph 91% 0.06 in
12:44 55.9 °F 53.1 °F 29.8 in OSO 6.7 mph 13 mph 90.3% 0.06 in
12:49 55.9 °F 53.1 °F 29.8 in SO 6.9 mph 13 mph 90% 0.04 in
12:54 55.9 °F 52.9 °F 29.8 in OSO 6.9 mph 12.7 mph 89.6% 0.04 in
12:59 55.9 °F 52.7 °F 29.8 in OSO 6.9 mph 13 mph 89% 0.03 in
13:04 55.9 °F 52.7 °F 29.8 in SO 6.9 mph 12 mph 89% 0.03 in
13:09 55.9 °F 52.7 °F 29.8 in SO 6.9 mph 11.8 mph 89% 0.03 in
13:14 55.9 °F 52.7 °F 29.8 in SO 6.6 mph 12 mph 89.3% 0.03 in
13:19 55.9 °F 52.7 °F 29.8 in SO 6.4 mph 11 mph 89.3% 0.02 in
13:24 55.8 °F 52.9 °F 29.8 in SO 6.3 mph 9.2 mph 89.8% 0.02 in
13:29 55.9 °F 52.9 °F 29.8 in SO 6.2 mph 8.5 mph 90% 0.02 in
13:34 55.9 °F 52.9 °F 29.8 in SO 4.9 mph 9 mph 90% 0.03 in
13:39 55.8 °F 52.9 °F 29.8 in SO 4.3 mph 8.1 mph 89.9% 0.02 in
13:44 55.8 °F 52.9 °F 29.8 in SO 4.6 mph 8.1 mph 89.7% 0.02 in
13:49 55.9 °F 52.9 °F 29.8 in SO 4.7 mph 7 mph 90% 0.02 in
13:54 55.8 °F 52.7 °F 29.8 in OSO 4.2 mph 8.1 mph 89.1% 0.02 in
13:59 55.6 °F 52.3 °F 29.8 in SO 4 mph 8 mph 88.8% 0.03 in
14:04 55.6 °F 52.3 °F 29.8 in SO 4.2 mph 7 mph 89% 0.03 in
14:09 55.6 °F 52.3 °F 29.8 in SO 4.3 mph 8.1 mph 89% 0.02 in
14:14 55.4 °F 52 °F 29.8 in SO 4.6 mph 9.2 mph 88.4% 0.04 in
14:19 55.2 °F 51.8 °F 29.8 in SO 4.7 mph 9 mph 88.2% 0.04 in
14:24 55 °F 51.6 °F 29.8 in SO 5.2 mph 9 mph 88% 0.04 in
14:29 55 °F 51.8 °F 29.8 in SO 5.4 mph 9 mph 88.8% 0.05 in
14:34 55 °F 52 °F 29.8 in SSO 5 mph 10.4 mph 89% 0.05 in
14:39 55 °F 52 °F 29.8 in SO 4.7 mph 10 mph 89% 0.06 in
14:44 55 °F 52 °F 29.8 in SO 5 mph 10 mph 89% 0.06 in
14:49 55 °F 52 °F 29.8 in SO 5.2 mph 10.4 mph 89% 0.07 in
14:54 55.2 °F 52 °F 29.8 in OSO 5.7 mph 10 mph 89.3% 0.07 in
14:59 55.4 °F 52.5 °F 29.8 in SO 5.9 mph 9 mph 90.1% 0.07 in
15:04 55.6 °F 53.1 °F 29.8 in SO 5.1 mph 7 mph 91% 0.06 in
15:09 55.6 °F 52.9 °F 29.8 in SO 4.7 mph 9.2 mph 90.9% 0.06 in
15:14 55.8 °F 53.1 °F 29.8 in SO 5 mph 9.2 mph 91% 0.06 in
15:19 55.4 °F 52.7 °F 29.8 in SO 5.2 mph 10.7 mph 90.2% 0.04 in
15:24 55.4 °F 52.5 °F 29.8 in OSO 6 mph 11 mph 90% 0.04 in
15:29 55.6 °F 52.7 °F 29.8 in OSO 6.4 mph 10 mph 90% 0.03 in
15:34 55.6 °F 52.7 °F 29.8 in OSO 5.7 mph 10.2 mph 90% 0.03 in
15:39 55.6 °F 52.3 °F 29.8 in SO 5.4 mph 10.4 mph 89.1% 0.02 in
15:44 55.8 °F 52.7 °F 29.7 in SO 5.4 mph 9.2 mph 89.8% 0.01 in
15:49 55.8 °F 52.9 °F 29.7 in SO 5.4 mph 13.8 mph 90% 0.01 in
15:54 55.8 °F 52.7 °F 29.8 in SSO 6.4 mph 14 mph 89.5% 0 in
15:59 55.8 °F 52.5 °F 29.8 in SSO 6.9 mph 13 mph 88.8% 0 in
16:04 55.9 °F 52.3 °F 29.8 in SSO 6.9 mph 14 mph 88% 0 in
16:09 55.9 °F 52.3 °F 29.8 in SSO 6.9 mph 15 mph 88% 0 in
16:14 55.9 °F 52.5 °F 29.8 in SSO 7.7 mph 15 mph 88% 0 in
16:19 55.9 °F 52.3 °F 29.8 in SSO 8.1 mph 13 mph 88% 0 in
16:24 55.9 °F 52.3 °F 29.8 in SO 7.8 mph 12 mph 88% 0 in
16:29 55.9 °F 52.3 °F 29.7 in OSO 7.6 mph 12 mph 88% 0.01 in
16:34 55.9 °F 52.3 °F 29.7 in SO 6.7 mph 13 mph 88% 0.01 in
16:39 55.9 °F 52.5 °F 29.8 in Sur 6.2 mph 13 mph 88.4% 0.01 in
16:44 56.1 °F 52.9 °F 29.8 in SO 6.3 mph 10 mph 89% 0.01 in
16:49 56.1 °F 52.5 °F 29.8 in SO 6.4 mph 10.4 mph 88.2% 0.01 in
16:54 56.1 °F 52.5 °F 29.8 in SSO 5.7 mph 10 mph 88% 0.01 in
16:59 56.3 °F 52.7 °F 29.7 in SSO 5.2 mph 8 mph 88% 0.01 in
17:04 56.5 °F 52.9 °F 29.7 in SSO 4.6 mph 9.2 mph 87.5% 0.01 in
17:09 56.5 °F 52.5 °F 29.7 in SSO 4.3 mph 12.7 mph 86.4% 0.01 in
17:14 56.7 °F 52.5 °F 29.7 in SSO 6 mph 13 mph 86% 0.01 in
17:19 56.7 °F 52.5 °F 29.7 in SSO 6.9 mph 12 mph 86% 0.01 in
17:24 56.7 °F 52.3 °F 29.7 in SSO 6.9 mph 12 mph 85.5% 0.01 in
17:29 56.8 °F 52.5 °F 29.7 in SSO 6.9 mph 10.4 mph 85.8% 0 in
17:34 56.8 °F 52.7 °F 29.7 in SSO 6.2 mph 10 mph 86% 0 in
17:39 56.8 °F 52.5 °F 29.7 in SSO 5.9 mph 8.5 mph 85.3% 0 in
17:44 56.8 °F 52.3 °F 29.7 in SSO 5.5 mph 9.7 mph 85% 0 in
17:49 56.8 °F 52.3 °F 29.7 in SSO 5.2 mph 10 mph 85% 0 in
17:54 56.8 °F 52.3 °F 29.7 in SSO 4.8 mph 9 mph 85% 0 in
17:59 56.8 °F 52.5 °F 29.7 in SSO 4.7 mph 8.5 mph 84.9% 0 in
18:04 57 °F 52.3 °F 29.7 in SSO 5.5 mph 9.7 mph 84.3% 0 in
18:09 57 °F 52.2 °F 29.7 in SSO 5.9 mph 10 mph 84% 0 in
18:14 57 °F 52.2 °F 29.7 in SSO 5.9 mph 9 mph 84% 0 in
18:19 57 °F 52.2 °F 29.7 in SSO 5.9 mph 9.2 mph 84% 0 in
18:24 57 °F 52.2 °F 29.7 in Sur 5.6 mph 9.2 mph 84.1% 0 in
18:29 57 °F 52.5 °F 29.7 in Sur 5.4 mph 9 mph 84.8% 0 in
18:34 57 °F 52.5 °F 29.7 in Sur 5.3 mph 8.5 mph 85% 0 in
18:39 57 °F 52.5 °F 29.7 in Sur 5.2 mph 9.2 mph 84.6% 0 in
18:44 57 °F 52.5 °F 29.7 in Sur 4.6 mph 9 mph 84.6% 0 in
18:49 57 °F 52.5 °F 29.7 in SSO 4.3 mph 7 mph 85% 0 in
18:54 57 °F 52.5 °F 29.7 in SO 3.9 mph 7 mph 85% 0 in
18:59 57 °F 52.3 °F 29.7 in SSO 3.6 mph 5 mph 84.5% 0 in
19:04 57 °F 52.2 °F 29.7 in SSO 3.1 mph 8.1 mph 84% 0 in
19:09 57 °F 52.3 °F 29.7 in Sur 2.9 mph 8.1 mph 84.5% 0 in
19:14 57 °F 52.5 °F 29.7 in SSO 3.9 mph 8.1 mph 84.6% 0 in
19:19 56.8 °F 52.3 °F 29.7 in OSO 4.3 mph 8.7 mph 84.8% 0 in
19:24 56.8 °F 52.2 °F 29.7 in SO 4.9 mph 9.2 mph 84% 0 in
19:29 56.8 °F 52 °F 29.7 in SSO 5.2 mph 11.5 mph 83.9% 0 in
19:34 56.8 °F 51.8 °F 29.7 in SO 5.3 mph 12 mph 83.3% 0 in
19:39 57 °F 52 °F 29.7 in SSO 5.4 mph 11.5 mph 83% 0 in
19:44 57 °F 52 °F 29.7 in SSO 5.4 mph 12 mph 83% 0 in
19:49 57 °F 52 °F 29.7 in SSO 5.4 mph 10.2 mph 83% 0 in
19:54 57 °F 52.2 °F 29.7 in Sur 6.1 mph 10.4 mph 83.7% 0 in
19:59 57 °F 52.2 °F 29.7 in SSO 6.4 mph 10.4 mph 84% 0 in
20:04 56.8 °F 52.2 °F 29.7 in SSE 6.3 mph 10 mph 84.2% 0 in
20:09 56.8 °F 52.3 °F 29.7 in Sur 6.2 mph 8 mph 85% 0 in
20:14 56.8 °F 52.5 °F 29.7 in Sur 4.7 mph 7 mph 85.5% 0 in
20:19 56.7 °F 52.5 °F 29.7 in Sur 4 mph 6 mph 86% 0 in
20:24 56.7 °F 52.5 °F 29.7 in Sur 4 mph 8.1 mph 86% 0 in
20:29 56.7 °F 52.7 °F 29.7 in SSO 4 mph 8 mph 86.8% 0 in
20:34 56.7 °F 52.9 °F 29.7 in SO 4.5 mph 8.5 mph 87% 0 in
20:39 56.7 °F 52.7 °F 29.7 in OSO 4.7 mph 9.2 mph 86.6% 0 in
20:44 56.7 °F 52.3 °F 29.7 in SO 4.7 mph 10.7 mph 85.5% 0 in
20:49 56.8 °F 52.3 °F 29.7 in SSO 4.7 mph 11 mph 85% 0 in
20:54 56.8 °F 52.2 °F 29.7 in SSO 5.7 mph 11.4 mph 84.1% 0 in
20:59 56.8 °F 52.2 °F 29.7 in SSO 6.2 mph 13 mph 84% 0 in
21:04 56.8 °F 52.2 °F 29.7 in SSO 6.2 mph 13 mph 84.1% 0 in
21:09 56.7 °F 52 °F 29.7 in Sur 6.2 mph 9.7 mph 84.1% 0 in
21:14 56.7 °F 51.6 °F 29.7 in SSO 5.5 mph 10 mph 83.2% 0 in
21:19 56.7 °F 51.4 °F 29.7 in Sur 5.2 mph 7 mph 82.7% 0 in
21:24 56.7 °F 51.1 °F 29.7 in SSO 4.8 mph 8.1 mph 81.8% 0 in
21:29 56.7 °F 50.9 °F 29.7 in SO 4.7 mph 8.1 mph 81% 0 in
21:34 56.7 °F 50.9 °F 29.7 in OSO 3.9 mph 6 mph 81% 0 in
21:39 56.7 °F 50.9 °F 29.7 in SO 3.6 mph 6.2 mph 81% 0 in
21:44 56.5 °F 50.7 °F 29.7 in SSO 3.6 mph 8.5 mph 80.8% 0 in
21:49 56.5 °F 50.7 °F 29.7 in SO 3.6 mph 9 mph 81% 0 in
21:54 56.5 °F 51.1 °F 29.7 in SO 4 mph 8 mph 81.9% 0 in
21:59 56.5 °F 51.3 °F 29.7 in SO 4.3 mph 8.7 mph 82.6% 0 in
22:04 56.3 °F 51.4 °F 29.7 in OSO 4.9 mph 9.2 mph 83.4% 0 in
22:09 56.3 °F 51.4 °F 29.7 in OSO 5.2 mph 8.5 mph 84.2% 0 in
22:14 56.1 °F 51.6 °F 29.7 in OSO 4.8 mph 9 mph 85% 0 in
22:19 56.1 °F 52 °F 29.7 in SSO 4.7 mph 9 mph 86% 0 in
22:24 56.1 °F 52.2 °F 29.7 in SSO 4 mph 6 mph 86.4% 0 in
22:29 56.1 °F 52.3 °F 29.7 in SSO 3.6 mph 8.1 mph 87% 0 in
22:34 56.1 °F 52.3 °F 29.7 in Sur 3.9 mph 8.1 mph 87% 0 in
22:39 56.1 °F 52.3 °F 29.7 in Sur 4 mph 7.4 mph 87% 0 in
22:44 56.1 °F 52.3 °F 29.7 in Sur 4.5 mph 8.1 mph 87% 0 in
22:49 55.9 °F 52.2 °F 29.7 in Sur 4.7 mph 8.1 mph 87.4% 0 in
22:54 55.9 °F 52.3 °F 29.7 in Sur 4.7 mph 9.2 mph 88% 0 in
22:59 55.8 °F 52.3 °F 29.7 in Sur 4.7 mph 9.2 mph 88% 0 in
23:04 55.8 °F 52.3 °F 29.7 in Sur 5.2 mph 9 mph 88% 0 in
23:09 55.8 °F 52.3 °F 29.7 in SSO 5.4 mph 8.1 mph 88% 0 in
23:14 55.8 °F 52.3 °F 29.7 in SSO 4.9 mph 10.7 mph 88% 0 in
23:19 55.9 °F 52.3 °F 29.7 in SSO 4.7 mph 11.5 mph 88% 0 in
23:24 55.9 °F 52.3 °F 29.7 in SSO 5.7 mph 12 mph 88% 0 in
23:29 55.9 °F 52.3 °F 29.7 in SSO 6.2 mph 10 mph 88% 0 in
23:34 55.9 °F 52.3 °F 29.7 in SSO 6 mph 10.7 mph 88% 0 in
23:39 55.9 °F 52.7 °F 29.7 in SSO 5.9 mph 11 mph 88.9% 0 in
23:44 55.9 °F 52.7 °F 29.7 in SSO 6.2 mph 11.8 mph 89% 0 in
23:49 55.9 °F 52.7 °F 29.7 in SSO 6.4 mph 12 mph 89% 0 in
23:54 55.9 °F 52.7 °F 29.7 in SO 5.7 mph 12 mph 89% 0 in
23:59 56.1 °F 52.9 °F 29.7 in SSO 5.4 mph 9 mph 89% 0 in
Murcia-Puente Tocinos, España
Compliments of Weather Underground - 3 mb

La estación de MeteoMurcia.com, publica sus datos en los siguientes proyectos:

Weather Underground PWS IMURCIAP2 Meteoclimatic www.awekas.at

W3Counter
Web Analytics